sensor_id;sensor_type;location;lat;lon;timestamp;P1;durP1;ratioP1;P2;durP2;ratioP2
55082;SDS011;40978;52.850;6.506;2024-03-17T00:01:04;0.40;;;0.30;;
55082;SDS011;40978;52.850;6.506;2024-03-17T00:03:30;0.32;;;0.20;;
55082;SDS011;40978;52.850;6.506;2024-03-17T00:05:59;0.65;;;0.20;;
55082;SDS011;40978;52.850;6.506;2024-03-17T00:08:26;1.20;;;0.40;;
55082;SDS011;40978;52.850;6.506;2024-03-17T00:10:55;1.33;;;0.35;;
55082;SDS011;40978;52.850;6.506;2024-03-17T00:13:21;0.15;;;0.15;;
55082;SDS011;40978;52.850;6.506;2024-03-17T00:15:50;0.20;;;0.17;;
55082;SDS011;40978;52.850;6.506;2024-03-17T00:18:16;0.43;;;0.20;;
55082;SDS011;40978;52.850;6.506;2024-03-17T00:20:43;2.88;;;0.55;;
55082;SDS011;40978;52.850;6.506;2024-03-17T00:23:08;7.90;;;0.68;;
55082;SDS011;40978;52.850;6.506;2024-03-17T00:25:37;0.40;;;0.22;;
55082;SDS011;40978;52.850;6.506;2024-03-17T00:28:03;0.15;;;0.10;;
55082;SDS011;40978;52.850;6.506;2024-03-17T00:30:29;0.13;;;0.10;;
55082;SDS011;40978;52.850;6.506;2024-03-17T00:32:56;1.00;;;0.30;;
55082;SDS011;40978;52.850;6.506;2024-03-17T00:35:23;0.55;;;0.10;;
55082;SDS011;40978;52.850;6.506;2024-03-17T00:37:50;1.05;;;0.55;;
55082;SDS011;40978;52.850;6.506;2024-03-17T00:40:16;0.17;;;0.17;;
55082;SDS011;40978;52.850;6.506;2024-03-17T00:42:42;0.68;;;0.50;;
55082;SDS011;40978;52.850;6.506;2024-03-17T00:45:10;2.47;;;0.20;;
55082;SDS011;40978;52.850;6.506;2024-03-17T00:47:36;3.20;;;0.47;;
55082;SDS011;40978;52.850;6.506;2024-03-17T00:50:03;3.83;;;0.75;;
55082;SDS011;40978;52.850;6.506;2024-03-17T00:52:31;0.70;;;0.20;;
55082;SDS011;40978;52.850;6.506;2024-03-17T00:54:57;0.50;;;0.20;;
55082;SDS011;40978;52.850;6.506;2024-03-17T00:57:23;0.40;;;0.20;;
55082;SDS011;40978;52.850;6.506;2024-03-17T00:59:49;0.85;;;0.45;;
55082;SDS011;40978;52.850;6.506;2024-03-17T01:02:15;3.58;;;0.55;;
55082;SDS011;40978;52.850;6.506;2024-03-17T01:04:45;1.40;;;0.75;;
55082;SDS011;40978;52.850;6.506;2024-03-17T01:07:11;1.45;;;0.35;;
55082;SDS011;40978;52.850;6.506;2024-03-17T01:09:37;0.10;;;0.10;;
55082;SDS011;40978;52.850;6.506;2024-03-17T01:12:03;0.20;;;0.20;;
55082;SDS011;40978;52.850;6.506;2024-03-17T01:14:30;0.60;;;0.35;;
55082;SDS011;40978;52.850;6.506;2024-03-17T01:16:56;0.73;;;0.30;;
55082;SDS011;40978;52.850;6.506;2024-03-17T01:19:22;0.30;;;0.30;;
55082;SDS011;40978;52.850;6.506;2024-03-17T01:21:48;3.20;;;0.40;;
55082;SDS011;40978;52.850;6.506;2024-03-17T01:24:14;0.40;;;0.20;;
55082;SDS011;40978;52.850;6.506;2024-03-17T01:26:40;0.30;;;0.28;;
55082;SDS011;40978;52.850;6.506;2024-03-17T01:29:05;0.70;;;0.17;;
55082;SDS011;40978;52.850;6.506;2024-03-17T01:31:34;0.68;;;0.20;;
55082;SDS011;40978;52.850;6.506;2024-03-17T01:34:00;0.85;;;0.40;;
55082;SDS011;40978;52.850;6.506;2024-03-17T01:36:26;0.60;;;0.43;;
55082;SDS011;40978;52.850;6.506;2024-03-17T01:38:51;1.75;;;0.45;;
55082;SDS011;40978;52.850;6.506;2024-03-17T01:41:17;0.13;;;0.10;;
55082;SDS011;40978;52.850;6.506;2024-03-17T01:43:43;0.17;;;0.10;;
55082;SDS011;40978;52.850;6.506;2024-03-17T01:46:12;0.15;;;0.13;;
55082;SDS011;40978;52.850;6.506;2024-03-17T01:48:40;0.73;;;0.22;;
55082;SDS011;40978;52.850;6.506;2024-03-17T01:51:06;0.93;;;0.40;;
55082;SDS011;40978;52.850;6.506;2024-03-17T01:53:33;1.13;;;0.40;;
55082;SDS011;40978;52.850;6.506;2024-03-17T01:56:00;1.38;;;0.28;;
55082;SDS011;40978;52.850;6.506;2024-03-17T01:58:27;0.47;;;0.47;;
55082;SDS011;40978;52.850;6.506;2024-03-17T02:00:54;1.52;;;0.45;;
55082;SDS011;40978;52.850;6.506;2024-03-17T02:03:21;0.30;;;0.20;;
55082;SDS011;40978;52.850;6.506;2024-03-17T02:05:47;0.28;;;0.15;;
55082;SDS011;40978;52.850;6.506;2024-03-17T02:08:13;0.10;;;0.03;;
55082;SDS011;40978;52.850;6.506;2024-03-17T02:10:39;2.30;;;0.30;;
55082;SDS011;40978;52.850;6.506;2024-03-17T02:13:05;0.60;;;0.10;;
55082;SDS011;40978;52.850;6.506;2024-03-17T02:15:31;2.47;;;0.75;;
55082;SDS011;40978;52.850;6.506;2024-03-17T02:17:57;2.35;;;0.40;;
55082;SDS011;40978;52.850;6.506;2024-03-17T02:20:23;0.03;;;0.03;;
55082;SDS011;40978;52.850;6.506;2024-03-17T02:23:08;0.15;;;0.10;;
55082;SDS011;40978;52.850;6.506;2024-03-17T02:25:34;1.02;;;0.32;;
55082;SDS011;40978;52.850;6.506;2024-03-17T02:28:00;0.52;;;0.35;;
55082;SDS011;40978;52.850;6.506;2024-03-17T02:30:26;0.05;;;0.03;;
55082;SDS011;40978;52.850;6.506;2024-03-17T02:32:52;1.95;;;0.57;;
55082;SDS011;40978;52.850;6.506;2024-03-17T02:35:22;0.32;;;0.28;;
55082;SDS011;40978;52.850;6.506;2024-03-17T02:37:48;0.38;;;0.13;;
55082;SDS011;40978;52.850;6.506;2024-03-17T02:40:14;0.70;;;0.50;;
55082;SDS011;40978;52.850;6.506;2024-03-17T02:42:41;0.80;;;0.52;;
55082;SDS011;40978;52.850;6.506;2024-03-17T02:45:07;1.30;;;0.35;;
55082;SDS011;40978;52.850;6.506;2024-03-17T02:47:34;0.80;;;0.50;;
55082;SDS011;40978;52.850;6.506;2024-03-17T02:50:00;0.57;;;0.30;;
55082;SDS011;40978;52.850;6.506;2024-03-17T02:52:26;1.45;;;0.80;;
55082;SDS011;40978;52.850;6.506;2024-03-17T02:54:51;0.47;;;0.43;;
55082;SDS011;40978;52.850;6.506;2024-03-17T02:57:18;1.27;;;0.68;;
55082;SDS011;40978;52.850;6.506;2024-03-17T02:59:44;1.23;;;0.20;;
55082;SDS011;40978;52.850;6.506;2024-03-17T03:02:11;0.25;;;0.17;;
55082;SDS011;40978;52.850;6.506;2024-03-17T03:04:37;2.17;;;0.70;;
55082;SDS011;40978;52.850;6.506;2024-03-17T03:07:03;1.40;;;0.55;;
55082;SDS011;40978;52.850;6.506;2024-03-17T03:09:28;1.13;;;0.63;;
55082;SDS011;40978;52.850;6.506;2024-03-17T03:12:00;0.45;;;0.30;;
55082;SDS011;40978;52.850;6.506;2024-03-17T03:14:29;1.10;;;0.77;;
55082;SDS011;40978;52.850;6.506;2024-03-17T03:16:55;1.55;;;0.70;;
55082;SDS011;40978;52.850;6.506;2024-03-17T03:19:21;2.70;;;0.80;;
55082;SDS011;40978;52.850;6.506;2024-03-17T03:21:47;0.95;;;0.28;;
55082;SDS011;40978;52.850;6.506;2024-03-17T03:24:16;1.13;;;0.40;;
55082;SDS011;40978;52.850;6.506;2024-03-17T03:26:42;3.17;;;0.82;;
55082;SDS011;40978;52.850;6.506;2024-03-17T03:29:09;0.65;;;0.45;;
55082;SDS011;40978;52.850;6.506;2024-03-17T03:31:39;0.43;;;0.25;;
55082;SDS011;40978;52.850;6.506;2024-03-17T03:34:05;0.40;;;0.30;;
55082;SDS011;40978;52.850;6.506;2024-03-17T03:36:33;7.05;;;0.82;;
55082;SDS011;40978;52.850;6.506;2024-03-17T03:39:00;0.88;;;0.35;;
55082;SDS011;40978;52.850;6.506;2024-03-17T03:41:27;1.50;;;0.40;;
55082;SDS011;40978;52.850;6.506;2024-03-17T03:43:53;0.47;;;0.47;;
55082;SDS011;40978;52.850;6.506;2024-03-17T03:46:18;4.82;;;0.38;;
55082;SDS011;40978;52.850;6.506;2024-03-17T03:48:45;1.23;;;0.82;;
55082;SDS011;40978;52.850;6.506;2024-03-17T03:51:11;1.42;;;0.60;;
55082;SDS011;40978;52.850;6.506;2024-03-17T03:53:37;0.93;;;0.47;;
55082;SDS011;40978;52.850;6.506;2024-03-17T03:56:04;1.65;;;0.60;;
55082;SDS011;40978;52.850;6.506;2024-03-17T03:58:35;3.85;;;0.90;;
55082;SDS011;40978;52.850;6.506;2024-03-17T04:01:08;2.95;;;0.40;;
55082;SDS011;40978;52.850;6.506;2024-03-17T04:03:36;0.30;;;0.28;;
55082;SDS011;40978;52.850;6.506;2024-03-17T04:06:05;1.38;;;0.80;;
55082;SDS011;40978;52.850;6.506;2024-03-17T04:08:36;1.15;;;0.65;;
55082;SDS011;40978;52.850;6.506;2024-03-17T04:11:02;2.88;;;0.75;;
55082;SDS011;40978;52.850;6.506;2024-03-17T04:13:29;2.05;;;1.05;;
55082;SDS011;40978;52.850;6.506;2024-03-17T04:15:56;3.72;;;1.10;;
55082;SDS011;40978;52.850;6.506;2024-03-17T04:18:22;0.85;;;0.45;;
55082;SDS011;40978;52.850;6.506;2024-03-17T04:20:50;0.50;;;0.43;;
55082;SDS011;40978;52.850;6.506;2024-03-17T04:23:22;0.75;;;0.57;;
55082;SDS011;40978;52.850;6.506;2024-03-17T04:25:50;1.00;;;0.80;;
55082;SDS011;40978;52.850;6.506;2024-03-17T04:28:16;0.38;;;0.20;;
55082;SDS011;40978;52.850;6.506;2024-03-17T04:30:42;3.80;;;0.77;;
55082;SDS011;40978;52.850;6.506;2024-03-17T04:33:08;1.20;;;0.88;;
55082;SDS011;40978;52.850;6.506;2024-03-17T04:35:36;3.13;;;1.17;;
55082;SDS011;40978;52.850;6.506;2024-03-17T04:38:03;1.50;;;0.93;;
55082;SDS011;40978;52.850;6.506;2024-03-17T04:40:29;0.45;;;0.40;;
55082;SDS011;40978;52.850;6.506;2024-03-17T04:42:55;0.30;;;0.30;;
55082;SDS011;40978;52.850;6.506;2024-03-17T04:45:21;3.22;;;0.47;;
55082;SDS011;40978;52.850;6.506;2024-03-17T04:47:47;0.45;;;0.40;;
55082;SDS011;40978;52.850;6.506;2024-03-17T04:50:12;0.60;;;0.38;;
55082;SDS011;40978;52.850;6.506;2024-03-17T04:52:38;0.77;;;0.30;;
55082;SDS011;40978;52.850;6.506;2024-03-17T04:55:04;5.28;;;1.05;;
55082;SDS011;40978;52.850;6.506;2024-03-17T04:57:30;0.22;;;0.17;;
55082;SDS011;40978;52.850;6.506;2024-03-17T04:59:56;0.43;;;0.32;;
55082;SDS011;40978;52.850;6.506;2024-03-17T05:02:21;1.20;;;0.75;;
55082;SDS011;40978;52.850;6.506;2024-03-17T05:04:49;4.38;;;0.77;;
55082;SDS011;40978;52.850;6.506;2024-03-17T05:07:15;0.32;;;0.25;;
55082;SDS011;40978;52.850;6.506;2024-03-17T05:09:41;1.25;;;0.70;;
55082;SDS011;40978;52.850;6.506;2024-03-17T05:12:09;0.45;;;0.38;;
55082;SDS011;40978;52.850;6.506;2024-03-17T05:14:34;1.38;;;0.93;;
55082;SDS011;40978;52.850;6.506;2024-03-17T05:17:01;1.30;;;0.77;;
55082;SDS011;40978;52.850;6.506;2024-03-17T05:19:26;0.20;;;0.20;;
55082;SDS011;40978;52.850;6.506;2024-03-17T05:21:52;1.50;;;0.70;;
55082;SDS011;40978;52.850;6.506;2024-03-17T05:24:18;4.78;;;0.73;;
55082;SDS011;40978;52.850;6.506;2024-03-17T05:26:44;1.17;;;0.47;;
55082;SDS011;40978;52.850;6.506;2024-03-17T05:29:10;0.57;;;0.38;;
55082;SDS011;40978;52.850;6.506;2024-03-17T05:31:36;0.60;;;0.52;;
55082;SDS011;40978;52.850;6.506;2024-03-17T05:34:04;0.57;;;0.40;;
55082;SDS011;40978;52.850;6.506;2024-03-17T05:36:31;1.98;;;0.73;;
55082;SDS011;40978;52.850;6.506;2024-03-17T05:38:58;0.80;;;0.60;;
55082;SDS011;40978;52.850;6.506;2024-03-17T05:41:24;1.63;;;0.60;;
55082;SDS011;40978;52.850;6.506;2024-03-17T05:43:51;0.25;;;0.20;;
55082;SDS011;40978;52.850;6.506;2024-03-17T05:46:17;2.80;;;0.75;;
55082;SDS011;40978;52.850;6.506;2024-03-17T05:48:42;0.43;;;0.17;;
55082;SDS011;40978;52.850;6.506;2024-03-17T05:51:11;0.35;;;0.30;;
55082;SDS011;40978;52.850;6.506;2024-03-17T05:53:37;1.55;;;0.50;;
55082;SDS011;40978;52.850;6.506;2024-03-17T05:56:09;0.47;;;0.43;;
55082;SDS011;40978;52.850;6.506;2024-03-17T05:58:36;6.57;;;0.93;;
55082;SDS011;40978;52.850;6.506;2024-03-17T06:01:02;0.50;;;0.40;;
55082;SDS011;40978;52.850;6.506;2024-03-17T06:03:28;1.52;;;0.32;;
55082;SDS011;40978;52.850;6.506;2024-03-17T06:05:54;1.38;;;0.50;;
55082;SDS011;40978;52.850;6.506;2024-03-17T06:08:20;2.30;;;0.82;;
55082;SDS011;40978;52.850;6.506;2024-03-17T06:10:47;1.15;;;0.60;;
55082;SDS011;40978;52.850;6.506;2024-03-17T06:13:14;2.05;;;0.57;;
55082;SDS011;40978;52.850;6.506;2024-03-17T06:15:43;5.85;;;1.27;;
55082;SDS011;40978;52.850;6.506;2024-03-17T06:18:11;2.78;;;0.63;;
55082;SDS011;40978;52.850;6.506;2024-03-17T06:20:42;1.00;;;0.55;;
55082;SDS011;40978;52.850;6.506;2024-03-17T06:23:10;2.92;;;1.05;;
55082;SDS011;40978;52.850;6.506;2024-03-17T06:25:40;0.50;;;0.50;;
55082;SDS011;40978;52.850;6.506;2024-03-17T06:28:07;3.55;;;0.95;;
55082;SDS011;40978;52.850;6.506;2024-03-17T06:30:33;0.40;;;0.30;;
55082;SDS011;40978;52.850;6.506;2024-03-17T06:33:01;0.70;;;0.60;;
55082;SDS011;40978;52.850;6.506;2024-03-17T06:35:27;2.47;;;0.80;;
55082;SDS011;40978;52.850;6.506;2024-03-17T06:37:58;1.40;;;0.45;;
55082;SDS011;40978;52.850;6.506;2024-03-17T06:40:25;4.95;;;1.13;;
55082;SDS011;40978;52.850;6.506;2024-03-17T06:42:50;0.30;;;0.30;;
55082;SDS011;40978;52.850;6.506;2024-03-17T06:45:17;0.68;;;0.40;;
55082;SDS011;40978;52.850;6.506;2024-03-17T06:47:45;1.40;;;0.75;;
55082;SDS011;40978;52.850;6.506;2024-03-17T06:50:11;4.55;;;0.70;;
55082;SDS011;40978;52.850;6.506;2024-03-17T06:52:37;2.60;;;0.95;;
55082;SDS011;40978;52.850;6.506;2024-03-17T06:55:03;2.35;;;0.77;;
55082;SDS011;40978;52.850;6.506;2024-03-17T06:57:31;3.78;;;0.80;;
55082;SDS011;40978;52.850;6.506;2024-03-17T06:59:59;0.70;;;0.57;;
55082;SDS011;40978;52.850;6.506;2024-03-17T07:02:30;2.00;;;0.55;;
55082;SDS011;40978;52.850;6.506;2024-03-17T07:04:59;8.45;;;0.93;;
55082;SDS011;40978;52.850;6.506;2024-03-17T07:07:28;4.72;;;1.30;;
55082;SDS011;40978;52.850;6.506;2024-03-17T07:09:53;0.20;;;0.20;;
55082;SDS011;40978;52.850;6.506;2024-03-17T07:12:19;0.30;;;0.30;;
55082;SDS011;40978;52.850;6.506;2024-03-17T07:14:45;1.77;;;1.08;;
55082;SDS011;40978;52.850;6.506;2024-03-17T07:17:11;0.82;;;0.68;;
55082;SDS011;40978;52.850;6.506;2024-03-17T07:19:37;1.17;;;0.43;;
55082;SDS011;40978;52.850;6.506;2024-03-17T07:22:02;2.60;;;1.38;;
55082;SDS011;40978;52.850;6.506;2024-03-17T07:24:29;1.15;;;0.43;;
55082;SDS011;40978;52.850;6.506;2024-03-17T07:26:55;0.52;;;0.45;;
55082;SDS011;40978;52.850;6.506;2024-03-17T07:29:21;3.10;;;0.98;;
55082;SDS011;40978;52.850;6.506;2024-03-17T07:31:47;0.47;;;0.38;;
55082;SDS011;40978;52.850;6.506;2024-03-17T07:34:12;1.25;;;0.40;;
55082;SDS011;40978;52.850;6.506;2024-03-17T07:36:38;2.20;;;0.63;;
55082;SDS011;40978;52.850;6.506;2024-03-17T07:39:04;0.65;;;0.40;;
55082;SDS011;40978;52.850;6.506;2024-03-17T07:41:32;1.55;;;0.95;;
55082;SDS011;40978;52.850;6.506;2024-03-17T07:43:58;1.77;;;0.90;;
55082;SDS011;40978;52.850;6.506;2024-03-17T07:46:23;0.68;;;0.40;;
55082;SDS011;40978;52.850;6.506;2024-03-17T07:48:49;0.82;;;0.60;;
55082;SDS011;40978;52.850;6.506;2024-03-17T07:51:16;2.22;;;0.75;;
55082;SDS011;40978;52.850;6.506;2024-03-17T07:53:43;1.52;;;0.75;;
55082;SDS011;40978;52.850;6.506;2024-03-17T07:56:13;4.75;;;1.08;;
55082;SDS011;40978;52.850;6.506;2024-03-17T07:58:40;1.38;;;0.45;;
55082;SDS011;40978;52.850;6.506;2024-03-17T08:01:08;0.90;;;0.63;;
55082;SDS011;40978;52.850;6.506;2024-03-17T08:03:36;1.27;;;0.73;;
55082;SDS011;40978;52.850;6.506;2024-03-17T08:06:05;4.40;;;1.20;;
55082;SDS011;40978;52.850;6.506;2024-03-17T08:08:32;2.38;;;0.77;;
55082;SDS011;40978;52.850;6.506;2024-03-17T08:10:58;0.98;;;0.60;;
55082;SDS011;40978;52.850;6.506;2024-03-17T08:13:25;2.53;;;0.98;;
55082;SDS011;40978;52.850;6.506;2024-03-17T08:15:58;2.67;;;0.65;;
55082;SDS011;40978;52.850;6.506;2024-03-17T08:18:25;1.23;;;0.60;;
55082;SDS011;40978;52.850;6.506;2024-03-17T08:20:52;0.93;;;0.70;;
55082;SDS011;40978;52.850;6.506;2024-03-17T08:23:19;1.75;;;0.60;;
55082;SDS011;40978;52.850;6.506;2024-03-17T08:25:57;0.73;;;0.50;;
55082;SDS011;40978;52.850;6.506;2024-03-17T08:28:25;1.55;;;0.70;;
55082;SDS011;40978;52.850;6.506;2024-03-17T08:30:56;1.30;;;0.60;;
55082;SDS011;40978;52.850;6.506;2024-03-17T08:33:23;0.93;;;0.75;;
55082;SDS011;40978;52.850;6.506;2024-03-17T08:35:53;3.42;;;1.65;;
55082;SDS011;40978;52.850;6.506;2024-03-17T08:38:23;3.63;;;1.20;;
55082;SDS011;40978;52.850;6.506;2024-03-17T08:40:53;1.55;;;1.02;;
55082;SDS011;40978;52.850;6.506;2024-03-17T08:43:20;1.95;;;1.02;;
55082;SDS011;40978;52.850;6.506;2024-03-17T08:48:32;2.22;;;1.42;;
55082;SDS011;40978;52.850;6.506;2024-03-17T08:50:59;3.13;;;1.20;;
55082;SDS011;40978;52.850;6.506;2024-03-17T08:53:26;3.67;;;1.38;;
55082;SDS011;40978;52.850;6.506;2024-03-17T08:55:53;2.45;;;1.17;;
55082;SDS011;40978;52.850;6.506;2024-03-17T08:58:19;2.13;;;1.38;;
55082;SDS011;40978;52.850;6.506;2024-03-17T09:00:45;6.45;;;2.65;;
55082;SDS011;40978;52.850;6.506;2024-03-17T09:03:11;5.78;;;1.45;;
55082;SDS011;40978;52.850;6.506;2024-03-17T09:05:47;1.80;;;1.10;;
55082;SDS011;40978;52.850;6.506;2024-03-17T09:08:17;1.98;;;1.17;;
55082;SDS011;40978;52.850;6.506;2024-03-17T09:10:51;2.27;;;1.03;;
55082;SDS011;40978;52.850;6.506;2024-03-17T09:13:19;2.63;;;1.80;;
55082;SDS011;40978;52.850;6.506;2024-03-17T09:18:18;3.05;;;2.35;;
55082;SDS011;40978;52.850;6.506;2024-03-17T09:20:44;3.22;;;1.73;;
55082;SDS011;40978;52.850;6.506;2024-03-17T09:23:11;2.67;;;1.55;;
55082;SDS011;40978;52.850;6.506;2024-03-17T09:25:36;1.95;;;1.13;;
55082;SDS011;40978;52.850;6.506;2024-03-17T09:28:02;3.33;;;1.73;;
55082;SDS011;40978;52.850;6.506;2024-03-17T09:30:28;3.05;;;1.92;;
55082;SDS011;40978;52.850;6.506;2024-03-17T09:32:54;2.58;;;1.52;;
55082;SDS011;40978;52.850;6.506;2024-03-17T09:35:20;1.58;;;1.48;;
55082;SDS011;40978;52.850;6.506;2024-03-17T09:37:45;5.95;;;1.80;;
55082;SDS011;40978;52.850;6.506;2024-03-17T09:40:14;3.83;;;1.75;;
55082;SDS011;40978;52.850;6.506;2024-03-17T09:42:41;4.05;;;1.42;;
55082;SDS011;40978;52.850;6.506;2024-03-17T09:45:09;5.80;;;2.03;;
55082;SDS011;40978;52.850;6.506;2024-03-17T09:47:36;5.93;;;2.03;;
55082;SDS011;40978;52.850;6.506;2024-03-17T09:50:02;4.70;;;1.80;;
55082;SDS011;40978;52.850;6.506;2024-03-17T09:52:28;3.30;;;1.73;;
55082;SDS011;40978;52.850;6.506;2024-03-17T09:54:59;6.30;;;1.67;;
55082;SDS011;40978;52.850;6.506;2024-03-17T09:57:26;4.20;;;2.10;;
55082;SDS011;40978;52.850;6.506;2024-03-17T09:59:54;5.03;;;1.30;;
55082;SDS011;40978;52.850;6.506;2024-03-17T10:02:20;5.30;;;1.55;;
55082;SDS011;40978;52.850;6.506;2024-03-17T10:04:47;5.10;;;2.53;;
55082;SDS011;40978;52.850;6.506;2024-03-17T10:07:13;4.13;;;1.30;;
55082;SDS011;40978;52.850;6.506;2024-03-17T10:09:42;3.88;;;2.13;;
55082;SDS011;40978;52.850;6.506;2024-03-17T10:12:27;4.15;;;1.52;;
55082;SDS011;40978;52.850;6.506;2024-03-17T10:15:00;2.58;;;1.73;;
55082;SDS011;40978;52.850;6.506;2024-03-17T10:17:33;4.47;;;1.55;;
55082;SDS011;40978;52.850;6.506;2024-03-17T10:20:16;2.53;;;1.23;;
55082;SDS011;40978;52.850;6.506;2024-03-17T10:25:25;3.30;;;1.63;;
55082;SDS011;40978;52.850;6.506;2024-03-17T10:27:52;4.50;;;1.67;;
55082;SDS011;40978;52.850;6.506;2024-03-17T10:30:19;2.22;;;1.63;;
55082;SDS011;40978;52.850;6.506;2024-03-17T10:32:51;5.05;;;1.58;;
55082;SDS011;40978;52.850;6.506;2024-03-17T10:35:53;2.28;;;1.42;;
55082;SDS011;40978;52.850;6.506;2024-03-17T10:38:14;3.40;;;1.45;;
55082;SDS011;40978;52.850;6.506;2024-03-17T10:40:39;2.10;;;1.48;;
55082;SDS011;40978;52.850;6.506;2024-03-17T10:43:07;3.05;;;1.40;;
55082;SDS011;40978;52.850;6.506;2024-03-17T10:45:36;3.83;;;1.25;;
55082;SDS011;40978;52.850;6.506;2024-03-17T10:48:07;2.72;;;1.20;;
55082;SDS011;40978;52.850;6.506;2024-03-17T10:50:37;2.63;;;1.27;;
55082;SDS011;40978;52.850;6.506;2024-03-17T10:53:04;1.63;;;1.15;;
55082;SDS011;40978;52.850;6.506;2024-03-17T10:55:43;2.22;;;1.20;;
55082;SDS011;40978;52.850;6.506;2024-03-17T10:58:16;3.08;;;1.33;;
55082;SDS011;40978;52.850;6.506;2024-03-17T11:00:56;2.85;;;1.60;;
55082;SDS011;40978;52.850;6.506;2024-03-17T11:03:24;2.10;;;1.25;;
55082;SDS011;40978;52.850;6.506;2024-03-17T11:05:50;3.22;;;1.40;;
55082;SDS011;40978;52.850;6.506;2024-03-17T11:08:17;4.10;;;1.02;;
55082;SDS011;40978;52.850;6.506;2024-03-17T11:10:50;1.88;;;1.38;;
55082;SDS011;40978;52.850;6.506;2024-03-17T11:13:23;3.92;;;1.45;;
55082;SDS011;40978;52.850;6.506;2024-03-17T11:15:53;2.00;;;1.48;;
55082;SDS011;40978;52.850;6.506;2024-03-17T11:20:58;3.15;;;1.80;;
55082;SDS011;40978;52.850;6.506;2024-03-17T11:23:26;2.53;;;1.45;;
55082;SDS011;40978;52.850;6.506;2024-03-17T11:25:54;4.78;;;1.88;;
55082;SDS011;40978;52.850;6.506;2024-03-17T11:33:59;2.67;;;1.85;;
55082;SDS011;40978;52.850;6.506;2024-03-17T11:39:04;3.72;;;1.75;;
55082;SDS011;40978;52.850;6.506;2024-03-17T11:41:48;2.23;;;1.50;;
55082;SDS011;40978;52.850;6.506;2024-03-17T11:49:26;4.13;;;1.92;;
55082;SDS011;40978;52.850;6.506;2024-03-17T11:52:05;3.80;;;2.28;;
55082;SDS011;40978;52.850;6.506;2024-03-17T11:54:41;3.97;;;1.50;;
55082;SDS011;40978;52.850;6.506;2024-03-17T11:57:13;2.30;;;1.60;;
55082;SDS011;40978;52.850;6.506;2024-03-17T11:59:47;2.80;;;1.70;;
55082;SDS011;40978;52.850;6.506;2024-03-17T12:04:46;5.47;;;2.38;;
55082;SDS011;40978;52.850;6.506;2024-03-17T12:07:14;2.50;;;1.60;;
55082;SDS011;40978;52.850;6.506;2024-03-17T12:09:44;1.58;;;1.30;;
55082;SDS011;40978;52.850;6.506;2024-03-17T12:12:17;3.35;;;1.48;;
55082;SDS011;40978;52.850;6.506;2024-03-17T12:14:48;4.38;;;1.67;;
55082;SDS011;40978;52.850;6.506;2024-03-17T12:17:20;3.45;;;1.60;;
55082;SDS011;40978;52.850;6.506;2024-03-17T12:19:47;2.40;;;1.60;;
55082;SDS011;40978;52.850;6.506;2024-03-17T12:22:17;1.88;;;1.52;;
55082;SDS011;40978;52.850;6.506;2024-03-17T12:24:47;4.35;;;2.08;;
55082;SDS011;40978;52.850;6.506;2024-03-17T12:27:18;1.95;;;1.55;;
55082;SDS011;40978;52.850;6.506;2024-03-17T12:29:46;2.10;;;1.45;;
55082;SDS011;40978;52.850;6.506;2024-03-17T12:32:17;2.53;;;1.80;;
55082;SDS011;40978;52.850;6.506;2024-03-17T12:34:46;1.98;;;1.27;;
55082;SDS011;40978;52.850;6.506;2024-03-17T12:37:16;1.88;;;1.35;;
55082;SDS011;40978;52.850;6.506;2024-03-17T12:39:46;2.33;;;1.65;;
55082;SDS011;40978;52.850;6.506;2024-03-17T12:42:15;4.18;;;1.83;;
55082;SDS011;40978;52.850;6.506;2024-03-17T12:44:57;2.60;;;1.63;;
55082;SDS011;40978;52.850;6.506;2024-03-17T12:47:24;3.05;;;1.75;;
55082;SDS011;40978;52.850;6.506;2024-03-17T12:49:54;2.65;;;1.48;;
55082;SDS011;40978;52.850;6.506;2024-03-17T12:55:05;2.20;;;0.95;;
55082;SDS011;40978;52.850;6.506;2024-03-17T13:00:44;2.58;;;1.67;;
55082;SDS011;40978;52.850;6.506;2024-03-17T13:03:21;2.40;;;1.00;;
55082;SDS011;40978;52.850;6.506;2024-03-17T13:05:51;2.78;;;2.05;;
55082;SDS011;40978;52.850;6.506;2024-03-17T13:08:17;3.83;;;1.50;;
55082;SDS011;40978;52.850;6.506;2024-03-17T13:10:43;1.63;;;0.90;;
55082;SDS011;40978;52.850;6.506;2024-03-17T13:13:09;1.55;;;1.30;;
55082;SDS011;40978;52.850;6.506;2024-03-17T13:15:37;1.50;;;0.90;;
55082;SDS011;40978;52.850;6.506;2024-03-17T13:18:03;1.77;;;1.23;;
55082;SDS011;40978;52.850;6.506;2024-03-17T13:20:33;2.85;;;1.38;;
55082;SDS011;40978;52.850;6.506;2024-03-17T13:23:00;2.28;;;1.10;;
55082;SDS011;40978;52.850;6.506;2024-03-17T13:25:29;2.13;;;1.40;;
55082;SDS011;40978;52.850;6.506;2024-03-17T13:28:00;3.50;;;0.80;;
55082;SDS011;40978;52.850;6.506;2024-03-17T13:30:26;2.00;;;0.93;;
55082;SDS011;40978;52.850;6.506;2024-03-17T13:32:53;1.45;;;1.08;;
55082;SDS011;40978;52.850;6.506;2024-03-17T13:35:26;1.20;;;0.77;;
55082;SDS011;40978;52.850;6.506;2024-03-17T13:37:57;2.03;;;1.15;;
55082;SDS011;40978;52.850;6.506;2024-03-17T13:40:26;1.75;;;1.25;;
55082;SDS011;40978;52.850;6.506;2024-03-17T13:42:54;2.60;;;1.23;;
55082;SDS011;40978;52.850;6.506;2024-03-17T13:45:21;2.90;;;1.27;;
55082;SDS011;40978;52.850;6.506;2024-03-17T13:48:01;4.03;;;2.25;;
55082;SDS011;40978;52.850;6.506;2024-03-17T13:50:29;2.42;;;1.23;;
55082;SDS011;40978;52.850;6.506;2024-03-17T13:52:55;2.50;;;1.40;;
55082;SDS011;40978;52.850;6.506;2024-03-17T13:55:22;1.75;;;0.85;;
55082;SDS011;40978;52.850;6.506;2024-03-17T13:57:53;5.07;;;1.45;;
55082;SDS011;40978;52.850;6.506;2024-03-17T14:00:21;2.33;;;1.58;;
55082;SDS011;40978;52.850;6.506;2024-03-17T14:02:48;5.18;;;1.20;;
55082;SDS011;40978;52.850;6.506;2024-03-17T14:05:15;1.25;;;0.93;;
55082;SDS011;40978;52.850;6.506;2024-03-17T14:07:42;1.88;;;1.08;;
55082;SDS011;40978;52.850;6.506;2024-03-17T14:10:09;3.70;;;1.23;;
55082;SDS011;40978;52.850;6.506;2024-03-17T14:12:36;2.03;;;1.17;;
55082;SDS011;40978;52.850;6.506;2024-03-17T14:15:04;3.20;;;1.60;;
55082;SDS011;40978;52.850;6.506;2024-03-17T14:17:30;2.28;;;1.40;;
55082;SDS011;40978;52.850;6.506;2024-03-17T14:19:56;2.88;;;1.45;;
55082;SDS011;40978;52.850;6.506;2024-03-17T14:22:22;1.38;;;0.98;;
55082;SDS011;40978;52.850;6.506;2024-03-17T14:24:48;2.10;;;1.10;;
55082;SDS011;40978;52.850;6.506;2024-03-17T14:27:15;2.78;;;1.73;;
55082;SDS011;40978;52.850;6.506;2024-03-17T14:29:41;2.47;;;1.35;;
55082;SDS011;40978;52.850;6.506;2024-03-17T14:32:08;1.95;;;1.30;;
55082;SDS011;40978;52.850;6.506;2024-03-17T14:34:33;2.22;;;1.35;;
55082;SDS011;40978;52.850;6.506;2024-03-17T14:37:03;1.98;;;1.63;;
55082;SDS011;40978;52.850;6.506;2024-03-17T14:39:32;3.10;;;1.80;;
55082;SDS011;40978;52.850;6.506;2024-03-17T14:41:58;3.67;;;1.73;;
55082;SDS011;40978;52.850;6.506;2024-03-17T14:44:23;1.70;;;1.08;;
55082;SDS011;40978;52.850;6.506;2024-03-17T14:46:49;2.50;;;1.75;;
55082;SDS011;40978;52.850;6.506;2024-03-17T14:49:20;2.92;;;1.80;;
55082;SDS011;40978;52.850;6.506;2024-03-17T14:51:46;4.07;;;1.90;;
55082;SDS011;40978;52.850;6.506;2024-03-17T14:54:13;1.83;;;1.15;;
55082;SDS011;40978;52.850;6.506;2024-03-17T14:56:38;3.33;;;2.13;;
55082;SDS011;40978;52.850;6.506;2024-03-17T14:59:07;6.22;;;2.05;;
55082;SDS011;40978;52.850;6.506;2024-03-17T15:01:34;2.85;;;1.58;;
55082;SDS011;40978;52.850;6.506;2024-03-17T15:03:59;1.83;;;1.38;;
55082;SDS011;40978;52.850;6.506;2024-03-17T15:06:25;2.97;;;1.65;;
55082;SDS011;40978;52.850;6.506;2024-03-17T15:08:52;3.03;;;1.50;;
55082;SDS011;40978;52.850;6.506;2024-03-17T15:11:18;2.97;;;1.85;;
55082;SDS011;40978;52.850;6.506;2024-03-17T15:13:44;2.70;;;1.95;;
55082;SDS011;40978;52.850;6.506;2024-03-17T15:16:10;3.17;;;2.08;;
55082;SDS011;40978;52.850;6.506;2024-03-17T15:18:37;2.28;;;1.70;;
55082;SDS011;40978;52.850;6.506;2024-03-17T15:21:03;4.57;;;2.63;;
55082;SDS011;40978;52.850;6.506;2024-03-17T15:23:32;2.42;;;1.27;;